sensor_id;sensor_type;location;lat;lon;timestamp;temperature;humidity
70534;SHT31;58088;51.186;17.130;2023-07-08T00:00:42;16.35;62.20
70534;SHT31;58088;51.186;17.130;2023-07-08T00:03:09;16.36;62.06
70534;SHT31;58088;51.186;17.130;2023-07-08T00:05:35;16.33;62.14
70534;SHT31;58088;51.186;17.130;2023-07-08T00:08:02;16.29;62.40
70534;SHT31;58088;51.186;17.130;2023-07-08T00:10:29;16.27;62.35
70534;SHT31;58088;51.186;17.130;2023-07-08T00:12:56;16.27;62.31
70534;SHT31;58088;51.186;17.130;2023-07-08T00:15:25;16.24;62.30
70534;SHT31;58088;51.186;17.130;2023-07-08T00:18:00;16.23;62.25
70534;SHT31;58088;51.186;17.130;2023-07-08T00:23:07;16.14;62.15
70534;SHT31;58088;51.186;17.130;2023-07-08T00:25:34;16.07;62.46
70534;SHT31;58088;51.186;17.130;2023-07-08T00:28:01;15.98;62.89
70534;SHT31;58088;51.186;17.130;2023-07-08T00:30:31;15.97;63.18
70534;SHT31;58088;51.186;17.130;2023-07-08T00:32:58;15.94;63.25
70534;SHT31;58088;51.186;17.130;2023-07-08T00:35:29;15.90;63.03
70534;SHT31;58088;51.186;17.130;2023-07-08T00:40:52;15.89;63.10
70534;SHT31;58088;51.186;17.130;2023-07-08T00:43:30;15.86;63.13
70534;SHT31;58088;51.186;17.130;2023-07-08T00:46:21;15.77;63.34
70534;SHT31;58088;51.186;17.130;2023-07-08T00:51:37;15.61;63.29
70534;SHT31;58088;51.186;17.130;2023-07-08T00:54:11;15.57;63.74
70534;SHT31;58088;51.186;17.130;2023-07-08T00:56:45;15.54;63.81
70534;SHT31;58088;51.186;17.130;2023-07-08T00:59:25;15.53;63.74
70534;SHT31;58088;51.186;17.130;2023-07-08T01:01:59;15.51;63.77
70534;SHT31;58088;51.186;17.130;2023-07-08T01:07:09;15.45;63.85
70534;SHT31;58088;51.186;17.130;2023-07-08T01:09:39;15.44;63.95
70534;SHT31;58088;51.186;17.130;2023-07-08T01:12:15;15.39;64.15
70534;SHT31;58088;51.186;17.130;2023-07-08T01:14:48;15.34;64.29
70534;SHT31;58088;51.186;17.130;2023-07-08T01:17:20;15.37;64.51
70534;SHT31;58088;51.186;17.130;2023-07-08T01:19:48;15.37;64.39
70534;SHT31;58088;51.186;17.130;2023-07-08T01:22:16;15.25;64.61
70534;SHT31;58088;51.186;17.130;2023-07-08T01:24:43;15.20;64.68
70534;SHT31;58088;51.186;17.130;2023-07-08T01:27:12;15.18;64.53
70534;SHT31;58088;51.186;17.130;2023-07-08T01:29:43;15.18;64.56
70534;SHT31;58088;51.186;17.130;2023-07-08T01:32:12;15.14;64.58
70534;SHT31;58088;51.186;17.130;2023-07-08T01:34:43;15.07;64.72
70534;SHT31;58088;51.186;17.130;2023-07-08T01:37:29;15.05;64.84
70534;SHT31;58088;51.186;17.130;2023-07-08T01:43:03;14.93;65.20
70534;SHT31;58088;51.186;17.130;2023-07-08T01:45:40;14.84;65.43
70534;SHT31;58088;51.186;17.130;2023-07-08T01:48:08;14.76;65.69
70534;SHT31;58088;51.186;17.130;2023-07-08T01:50:42;14.72;65.80
70534;SHT31;58088;51.186;17.130;2023-07-08T01:53:36;14.70;65.97
70534;SHT31;58088;51.186;17.130;2023-07-08T01:56:06;14.74;66.07
70534;SHT31;58088;51.186;17.130;2023-07-08T01:58:34;14.80;65.56
70534;SHT31;58088;51.186;17.130;2023-07-08T02:01:00;14.79;65.11
70534;SHT31;58088;51.186;17.130;2023-07-08T02:03:46;14.69;65.15
70534;SHT31;58088;51.186;17.130;2023-07-08T02:06:12;14.67;65.12
70534;SHT31;58088;51.186;17.130;2023-07-08T02:08:39;14.65;65.59
70534;SHT31;58088;51.186;17.130;2023-07-08T02:11:05;14.61;65.84
70534;SHT31;58088;51.186;17.130;2023-07-08T02:13:31;14.61;65.95
70534;SHT31;58088;51.186;17.130;2023-07-08T02:15:57;14.53;66.33
70534;SHT31;58088;51.186;17.130;2023-07-08T02:18:23;14.48;66.47
70534;SHT31;58088;51.186;17.130;2023-07-08T02:20:50;14.50;66.31
70534;SHT31;58088;51.186;17.130;2023-07-08T02:23:16;14.50;66.13
70534;SHT31;58088;51.186;17.130;2023-07-08T02:25:49;14.46;65.87
70534;SHT31;58088;51.186;17.130;2023-07-08T02:28:21;14.44;65.80
70534;SHT31;58088;51.186;17.130;2023-07-08T02:30:47;14.43;66.01
70534;SHT31;58088;51.186;17.130;2023-07-08T02:33:14;14.42;66.25
70534;SHT31;58088;51.186;17.130;2023-07-08T02:35:43;14.42;66.41
70534;SHT31;58088;51.186;17.130;2023-07-08T02:38:11;14.38;66.63
70534;SHT31;58088;51.186;17.130;2023-07-08T02:40:37;14.35;66.64
70534;SHT31;58088;51.186;17.130;2023-07-08T02:43:03;14.35;66.48
70534;SHT31;58088;51.186;17.130;2023-07-08T02:45:31;14.36;66.41
70534;SHT31;58088;51.186;17.130;2023-07-08T02:47:57;14.34;66.43
70534;SHT31;58088;51.186;17.130;2023-07-08T02:50:23;14.31;66.46
70534;SHT31;58088;51.186;17.130;2023-07-08T02:52:50;14.28;66.62
70534;SHT31;58088;51.186;17.130;2023-07-08T02:55:16;14.27;66.70
70534;SHT31;58088;51.186;17.130;2023-07-08T02:57:42;14.27;66.57
70534;SHT31;58088;51.186;17.130;2023-07-08T03:00:08;14.27;66.59
70534;SHT31;58088;51.186;17.130;2023-07-08T03:02:36;14.33;66.48
70534;SHT31;58088;51.186;17.130;2023-07-08T03:05:02;14.44;66.24
70534;SHT31;58088;51.186;17.130;2023-07-08T03:07:30;14.59;65.90
70534;SHT31;58088;51.186;17.130;2023-07-08T03:09:57;14.78;65.59
70534;SHT31;58088;51.186;17.130;2023-07-08T03:12:23;15.01;65.39
70534;SHT31;58088;51.186;17.130;2023-07-08T03:14:49;15.26;65.12
70534;SHT31;58088;51.186;17.130;2023-07-08T03:17:16;15.58;64.74
70534;SHT31;58088;51.186;17.130;2023-07-08T03:19:43;15.84;64.16
70534;SHT31;58088;51.186;17.130;2023-07-08T03:22:10;16.00;63.93
70534;SHT31;58088;51.186;17.130;2023-07-08T03:24:36;16.29;63.52
70534;SHT31;58088;51.186;17.130;2023-07-08T03:27:03;16.62;62.74
70534;SHT31;58088;51.186;17.130;2023-07-08T03:29:33;16.99;62.01
70534;SHT31;58088;51.186;17.130;2023-07-08T03:31:59;17.36;61.31
70534;SHT31;58088;51.186;17.130;2023-07-08T03:34:25;17.71;60.67
70534;SHT31;58088;51.186;17.130;2023-07-08T03:36:54;17.96;60.03
70534;SHT31;58088;51.186;17.130;2023-07-08T03:39:21;18.18;59.56
70534;SHT31;58088;51.186;17.130;2023-07-08T03:41:51;18.46;58.94
70534;SHT31;58088;51.186;17.130;2023-07-08T03:44:18;18.79;58.35
70534;SHT31;58088;51.186;17.130;2023-07-08T03:46:46;19.12;57.72
70534;SHT31;58088;51.186;17.130;2023-07-08T03:49:19;19.47;57.16
70534;SHT31;58088;51.186;17.130;2023-07-08T03:51:50;19.82;56.50
70534;SHT31;58088;51.186;17.130;2023-07-08T03:54:20;20.17;55.78
70534;SHT31;58088;51.186;17.130;2023-07-08T03:56:50;20.50;55.34
70534;SHT31;58088;51.186;17.130;2023-07-08T03:59:18;20.80;55.00
70534;SHT31;58088;51.186;17.130;2023-07-08T04:01:45;21.13;54.49
70534;SHT31;58088;51.186;17.130;2023-07-08T04:04:13;21.41;53.80
70534;SHT31;58088;51.186;17.130;2023-07-08T04:06:42;21.76;53.23
70534;SHT31;58088;51.186;17.130;2023-07-08T04:09:12;22.13;52.78
70534;SHT31;58088;51.186;17.130;2023-07-08T04:11:38;22.48;52.30
70534;SHT31;58088;51.186;17.130;2023-07-08T04:14:05;22.83;51.90
70534;SHT31;58088;51.186;17.130;2023-07-08T04:16:33;23.17;51.22
70534;SHT31;58088;51.186;17.130;2023-07-08T04:19:17;23.51;50.36
70534;SHT31;58088;51.186;17.130;2023-07-08T04:21:44;23.92;49.83
70534;SHT31;58088;51.186;17.130;2023-07-08T04:24:12;24.32;49.03
70534;SHT31;58088;51.186;17.130;2023-07-08T04:26:40;24.61;48.34
70534;SHT31;58088;51.186;17.130;2023-07-08T04:29:11;24.89;48.00
70534;SHT31;58088;51.186;17.130;2023-07-08T04:31:41;25.22;47.38
70534;SHT31;58088;51.186;17.130;2023-07-08T04:34:07;25.51;46.61
70534;SHT31;58088;51.186;17.130;2023-07-08T04:36:35;25.92;45.83
70534;SHT31;58088;51.186;17.130;2023-07-08T04:39:03;26.33;44.84
70534;SHT31;58088;51.186;17.130;2023-07-08T04:41:31;26.67;44.05
70534;SHT31;58088;51.186;17.130;2023-07-08T04:43:58;26.97;43.22
70534;SHT31;58088;51.186;17.130;2023-07-08T04:49:18;27.52;42.27
70534;SHT31;58088;51.186;17.130;2023-07-08T04:51:46;27.83;41.78
70534;SHT31;58088;51.186;17.130;2023-07-08T04:54:13;28.03;41.28
70534;SHT31;58088;51.186;17.130;2023-07-08T04:56:44;28.35;40.69
70534;SHT31;58088;51.186;17.130;2023-07-08T04:59:17;28.55;40.20
70534;SHT31;58088;51.186;17.130;2023-07-08T05:01:49;28.81;40.09
70534;SHT31;58088;51.186;17.130;2023-07-08T05:04:19;29.20;39.58
70534;SHT31;58088;51.186;17.130;2023-07-08T05:06:48;29.55;39.18
70534;SHT31;58088;51.186;17.130;2023-07-08T05:09:15;29.87;38.85
70534;SHT31;58088;51.186;17.130;2023-07-08T05:11:42;30.08;38.51
70534;SHT31;58088;51.186;17.130;2023-07-08T05:14:11;30.29;38.11
70534;SHT31;58088;51.186;17.130;2023-07-08T05:16:39;30.39;37.82
70534;SHT31;58088;51.186;17.130;2023-07-08T05:19:06;30.63;37.67
70534;SHT31;58088;51.186;17.130;2023-07-08T05:21:32;30.80;37.28
70534;SHT31;58088;51.186;17.130;2023-07-08T05:24:01;30.92;37.00
70534;SHT31;58088;51.186;17.130;2023-07-08T05:26:30;31.06;36.60
70534;SHT31;58088;51.186;17.130;2023-07-08T05:28:57;31.18;36.40
70534;SHT31;58088;51.186;17.130;2023-07-08T05:31:23;31.37;36.22
70534;SHT31;58088;51.186;17.130;2023-07-08T05:33:50;31.53;36.08
70534;SHT31;58088;51.186;17.130;2023-07-08T05:36:17;31.76;35.81
70534;SHT31;58088;51.186;17.130;2023-07-08T05:38:43;31.98;35.29
70534;SHT31;58088;51.186;17.130;2023-07-08T05:41:09;32.02;35.18
70534;SHT31;58088;51.186;17.130;2023-07-08T05:43:35;32.22;34.84
70534;SHT31;58088;51.186;17.130;2023-07-08T05:46:01;32.28;34.73
70534;SHT31;58088;51.186;17.130;2023-07-08T05:48:28;32.52;34.53
70534;SHT31;58088;51.186;17.130;2023-07-08T05:50:55;32.65;34.28
70534;SHT31;58088;51.186;17.130;2023-07-08T05:53:22;32.75;34.02
70534;SHT31;58088;51.186;17.130;2023-07-08T05:55:48;32.79;34.17
70534;SHT31;58088;51.186;17.130;2023-07-08T05:58:16;32.92;33.78
70534;SHT31;58088;51.186;17.130;2023-07-08T06:00:42;33.02;33.41
70534;SHT31;58088;51.186;17.130;2023-07-08T06:03:09;33.06;33.07
70534;SHT31;58088;51.186;17.130;2023-07-08T06:05:36;33.24;33.14
70534;SHT31;58088;51.186;17.130;2023-07-08T06:08:03;33.45;33.21
70534;SHT31;58088;51.186;17.130;2023-07-08T06:10:31;33.55;32.89
70534;SHT31;58088;51.186;17.130;2023-07-08T06:13:01;33.64;32.48
70534;SHT31;58088;51.186;17.130;2023-07-08T06:15:27;33.75;32.53
70534;SHT31;58088;51.186;17.130;2023-07-08T06:17:53;33.91;32.41
70534;SHT31;58088;51.186;17.130;2023-07-08T06:20:19;34.19;32.14
70534;SHT31;58088;51.186;17.130;2023-07-08T06:22:46;34.32;32.03
70534;SHT31;58088;51.186;17.130;2023-07-08T06:25:12;34.36;31.98
70534;SHT31;58088;51.186;17.130;2023-07-08T06:27:38;34.28;31.88
70534;SHT31;58088;51.186;17.130;2023-07-08T06:30:05;34.27;31.84
70534;SHT31;58088;51.186;17.130;2023-07-08T06:32:32;34.39;32.22
70534;SHT31;58088;51.186;17.130;2023-07-08T06:34:58;34.54;32.49
70534;SHT31;58088;51.186;17.130;2023-07-08T06:37:25;34.78;32.23
70534;SHT31;58088;51.186;17.130;2023-07-08T06:39:51;34.86;31.79
70534;SHT31;58088;51.186;17.130;2023-07-08T06:42:17;34.95;31.68
70534;SHT31;58088;51.186;17.130;2023-07-08T06:44:51;35.08;31.40
70534;SHT31;58088;51.186;17.130;2023-07-08T06:47:18;34.97;31.45
70534;SHT31;58088;51.186;17.130;2023-07-08T06:49:48;34.88;31.42
70534;SHT31;58088;51.186;17.130;2023-07-08T06:52:14;34.84;31.57
70534;SHT31;58088;51.186;17.130;2023-07-08T06:54:40;34.84;31.48
70534;SHT31;58088;51.186;17.130;2023-07-08T06:57:07;34.80;31.27
70534;SHT31;58088;51.186;17.130;2023-07-08T06:59:34;34.92;31.24
70534;SHT31;58088;51.186;17.130;2023-07-08T07:02:00;34.85;31.11
70534;SHT31;58088;51.186;17.130;2023-07-08T07:04:27;34.76;31.28
70534;SHT31;58088;51.186;17.130;2023-07-08T07:06:56;34.82;31.34
70534;SHT31;58088;51.186;17.130;2023-07-08T07:09:22;34.94;31.48
70534;SHT31;58088;51.186;17.130;2023-07-08T07:11:48;34.80;31.17
70534;SHT31;58088;51.186;17.130;2023-07-08T07:14:18;34.75;31.63
70534;SHT31;58088;51.186;17.130;2023-07-08T07:16:44;34.94;31.46
70534;SHT31;58088;51.186;17.130;2023-07-08T07:19:11;35.06;31.23
70534;SHT31;58088;51.186;17.130;2023-07-08T07:21:41;35.21;30.64
70534;SHT31;58088;51.186;17.130;2023-07-08T07:24:08;35.38;30.55
70534;SHT31;58088;51.186;17.130;2023-07-08T07:26:34;35.54;30.36
70534;SHT31;58088;51.186;17.130;2023-07-08T07:29:02;35.65;29.72
70534;SHT31;58088;51.186;17.130;2023-07-08T07:31:28;35.65;28.71
70534;SHT31;58088;51.186;17.130;2023-07-08T07:33:56;35.20;28.38
70534;SHT31;58088;51.186;17.130;2023-07-08T07:36:22;35.15;28.98
70534;SHT31;58088;51.186;17.130;2023-07-08T07:38:48;35.20;28.38
70534;SHT31;58088;51.186;17.130;2023-07-08T07:41:14;35.21;28.87
70534;SHT31;58088;51.186;17.130;2023-07-08T07:43:41;35.28;28.59
70534;SHT31;58088;51.186;17.130;2023-07-08T07:46:07;35.42;28.77
70534;SHT31;58088;51.186;17.130;2023-07-08T07:48:33;35.44;28.65
70534;SHT31;58088;51.186;17.130;2023-07-08T07:51:00;35.46;28.50
70534;SHT31;58088;51.186;17.130;2023-07-08T07:53:26;35.45;28.30
70534;SHT31;58088;51.186;17.130;2023-07-08T07:55:56;35.43;27.92
70534;SHT31;58088;51.186;17.130;2023-07-08T07:58:27;35.29;28.01
70534;SHT31;58088;51.186;17.130;2023-07-08T08:00:53;35.16;28.15
70534;SHT31;58088;51.186;17.130;2023-07-08T08:03:20;34.99;27.76
70534;SHT31;58088;51.186;17.130;2023-07-08T08:05:47;34.90;28.07
70534;SHT31;58088;51.186;17.130;2023-07-08T08:08:14;35.07;28.27
70534;SHT31;58088;51.186;17.130;2023-07-08T08:10:42;35.17;27.85
70534;SHT31;58088;51.186;17.130;2023-07-08T08:13:08;35.04;27.54
70534;SHT31;58088;51.186;17.130;2023-07-08T08:15:37;35.10;27.34
70534;SHT31;58088;51.186;17.130;2023-07-08T08:18:04;35.23;27.46
70534;SHT31;58088;51.186;17.130;2023-07-08T08:20:30;35.24;27.22
70534;SHT31;58088;51.186;17.130;2023-07-08T08:22:56;35.32;27.79
70534;SHT31;58088;51.186;17.130;2023-07-08T08:25:23;35.38;26.71
70534;SHT31;58088;51.186;17.130;2023-07-08T08:27:50;35.27;26.29
70534;SHT31;58088;51.186;17.130;2023-07-08T08:30:18;34.87;26.13
70534;SHT31;58088;51.186;17.130;2023-07-08T08:32:44;34.62;25.99
70534;SHT31;58088;51.186;17.130;2023-07-08T08:35:11;34.61;25.67
70534;SHT31;58088;51.186;17.130;2023-07-08T08:37:37;34.75;26.01
70534;SHT31;58088;51.186;17.130;2023-07-08T08:40:03;34.84;25.64
70534;SHT31;58088;51.186;17.130;2023-07-08T08:43:14;34.87;25.38
70534;SHT31;58088;51.186;17.130;2023-07-08T08:45:36;34.97;25.94
70534;SHT31;58088;51.186;17.130;2023-07-08T08:48:27;35.10;25.44
70534;SHT31;58088;51.186;17.130;2023-07-08T08:51:04;35.12;24.63
70534;SHT31;58088;51.186;17.130;2023-07-08T08:53:36;34.89;24.38
70534;SHT31;58088;51.186;17.130;2023-07-08T08:56:05;34.72;24.33
70534;SHT31;58088;51.186;17.130;2023-07-08T08:59:03;34.84;24.61
70534;SHT31;58088;51.186;17.130;2023-07-08T09:01:49;34.81;24.25
70534;SHT31;58088;51.186;17.130;2023-07-08T09:04:20;34.89;24.35
70534;SHT31;58088;51.186;17.130;2023-07-08T09:06:56;35.01;23.98
70534;SHT31;58088;51.186;17.130;2023-07-08T09:12:13;35.31;23.78
70534;SHT31;58088;51.186;17.130;2023-07-08T09:14:47;35.23;23.55
70534;SHT31;58088;51.186;17.130;2023-07-08T09:22:46;35.23;24.14
70534;SHT31;58088;51.186;17.130;2023-07-08T09:25:42;35.32;23.36
70534;SHT31;58088;51.186;17.130;2023-07-08T09:28:16;35.19;23.56
70534;SHT31;58088;51.186;17.130;2023-07-08T09:30:46;35.15;22.99
70534;SHT31;58088;51.186;17.130;2023-07-08T09:33:18;34.99;22.78
70534;SHT31;58088;51.186;17.130;2023-07-08T09:35:48;34.87;22.61
70534;SHT31;58088;51.186;17.130;2023-07-08T09:38:16;34.79;22.46
70534;SHT31;58088;51.186;17.130;2023-07-08T09:40:48;34.75;22.71
70534;SHT31;58088;51.186;17.130;2023-07-08T09:43:26;34.72;22.78
70534;SHT31;58088;51.186;17.130;2023-07-08T09:46:01;34.76;23.31
70534;SHT31;58088;51.186;17.130;2023-07-08T09:48:29;34.82;23.07
70534;SHT31;58088;51.186;17.130;2023-07-08T09:51:01;34.83;22.90
70534;SHT31;58088;51.186;17.130;2023-07-08T09:53:29;34.92;23.39
70534;SHT31;58088;51.186;17.130;2023-07-08T09:55:59;34.93;22.86
70534;SHT31;58088;51.186;17.130;2023-07-08T09:58:30;34.89;22.96
70534;SHT31;58088;51.186;17.130;2023-07-08T10:01:09;34.84;23.30
70534;SHT31;58088;51.186;17.130;2023-07-08T10:03:39;34.88;23.16
70534;SHT31;58088;51.186;17.130;2023-07-08T10:06:14;34.76;22.95
70534;SHT31;58088;51.186;17.130;2023-07-08T10:08:50;34.52;22.89
70534;SHT31;58088;51.186;17.130;2023-07-08T10:11:23;34.49;22.96
70534;SHT31;58088;51.186;17.130;2023-07-08T10:13:56;34.43;22.89
70534;SHT31;58088;51.186;17.130;2023-07-08T10:16:31;34.28;23.07
70534;SHT31;58088;51.186;17.130;2023-07-08T10:18:59;34.36;23.63
70534;SHT31;58088;51.186;17.130;2023-07-08T10:21:43;34.29;23.15
70534;SHT31;58088;51.186;17.130;2023-07-08T10:27:35;34.23;23.81
70534;SHT31;58088;51.186;17.130;2023-07-08T10:30:20;34.28;23.68
70534;SHT31;58088;51.186;17.130;2023-07-08T10:42:17;33.76;23.09
70534;SHT31;58088;51.186;17.130;2023-07-08T10:44:55;33.56;23.41
70534;SHT31;58088;51.186;17.130;2023-07-08T10:50:39;33.59;23.98
70534;SHT31;58088;51.186;17.130;2023-07-08T10:53:21;33.68;23.61
70534;SHT31;58088;51.186;17.130;2023-07-08T10:56:09;33.66;23.57
70534;SHT31;58088;51.186;17.130;2023-07-08T10:59:04;33.49;23.49
70534;SHT31;58088;51.186;17.130;2023-07-08T11:08:15;33.45;23.45
70534;SHT31;58088;51.186;17.130;2023-07-08T11:11:26;33.41;23.36
70534;SHT31;58088;51.186;17.130;2023-07-08T11:14:18;33.39;23.19
70534;SHT31;58088;51.186;17.130;2023-07-08T11:19:47;33.48;23.41
70534;SHT31;58088;51.186;17.130;2023-07-08T11:22:23;33.50;23.16
70534;SHT31;58088;51.186;17.130;2023-07-08T11:24:53;33.51;22.64
70534;SHT31;58088;51.186;17.130;2023-07-08T11:30:02;33.51;23.05
70534;SHT31;58088;51.186;17.130;2023-07-08T11:32:44;33.62;23.85
70534;SHT31;58088;51.186;17.130;2023-07-08T11:35:22;33.70;23.28
70534;SHT31;58088;51.186;17.130;2023-07-08T11:38:00;33.72;24.00
70534;SHT31;58088;51.186;17.130;2023-07-08T11:40:28;33.83;24.03
70534;SHT31;58088;51.186;17.130;2023-07-08T11:43:02;33.94;24.14
70534;SHT31;58088;51.186;17.130;2023-07-08T11:45:38;33.99;24.03
70534;SHT31;58088;51.186;17.130;2023-07-08T11:50:47;34.02;23.19
70534;SHT31;58088;51.186;17.130;2023-07-08T11:53:32;34.00;22.57
70534;SHT31;58088;51.186;17.130;2023-07-08T12:04:28;34.11;22.86
70534;SHT31;58088;51.186;17.130;2023-07-08T12:07:02;34.12;23.46
70534;SHT31;58088;51.186;17.130;2023-07-08T12:09:50;34.11;23.65
70534;SHT31;58088;51.186;17.130;2023-07-08T12:12:43;34.17;22.91
70534;SHT31;58088;51.186;17.130;2023-07-08T12:15:17;34.22;23.28
70534;SHT31;58088;51.186;17.130;2023-07-08T12:17:49;34.23;23.02
70534;SHT31;58088;51.186;17.130;2023-07-08T12:20:32;34.22;22.89
70534;SHT31;58088;51.186;17.130;2023-07-08T12:23:03;34.19;22.33
70534;SHT31;58088;51.186;17.130;2023-07-08T12:25:39;34.17;22.45
70534;SHT31;58088;51.186;17.130;2023-07-08T12:28:05;34.11;22.29
70534;SHT31;58088;51.186;17.130;2023-07-08T12:30:32;34.01;22.68
70534;SHT31;58088;51.186;17.130;2023-07-08T12:32:59;33.98;23.48
70534;SHT31;58088;51.186;17.130;2023-07-08T12:35:32;33.99;23.78
70534;SHT31;58088;51.186;17.130;2023-07-08T12:38:24;34.00;23.13
70534;SHT31;58088;51.186;17.130;2023-07-08T12:40:58;33.93;23.08
70534;SHT31;58088;51.186;17.130;2023-07-08T12:43:31;33.94;23.36
70534;SHT31;58088;51.186;17.130;2023-07-08T12:45:57;33.95;22.54
70534;SHT31;58088;51.186;17.130;2023-07-08T12:48:24;33.90;22.69
70534;SHT31;58088;51.186;17.130;2023-07-08T12:50:50;33.87;22.48
70534;SHT31;58088;51.186;17.130;2023-07-08T12:53:16;33.81;22.26
70534;SHT31;58088;51.186;17.130;2023-07-08T12:55:44;33.70;22.55
70534;SHT31;58088;51.186;17.130;2023-07-08T12:58:24;33.64;22.73
70534;SHT31;58088;51.186;17.130;2023-07-08T13:00:56;33.65;22.95
70534;SHT31;58088;51.186;17.130;2023-07-08T13:03:36;33.67;23.46
70534;SHT31;58088;51.186;17.130;2023-07-08T13:06:09;33.76;23.84
70534;SHT31;58088;51.186;17.130;2023-07-08T13:08:38;33.82;23.38
70534;SHT31;58088;51.186;17.130;2023-07-08T13:11:05;33.83;23.69
70534;SHT31;58088;51.186;17.130;2023-07-08T13:13:36;33.78;22.49
70534;SHT31;58088;51.186;17.130;2023-07-08T13:16:13;33.72;23.71
70534;SHT31;58088;51.186;17.130;2023-07-08T13:18:41;33.80;24.74
70534;SHT31;58088;51.186;17.130;2023-07-08T13:21:10;33.86;23.37
70534;SHT31;58088;51.186;17.130;2023-07-08T13:23:40;33.80;22.76
70534;SHT31;58088;51.186;17.130;2023-07-08T13:26:17;33.78;22.79
70534;SHT31;58088;51.186;17.130;2023-07-08T13:28:47;33.80;23.76
70534;SHT31;58088;51.186;17.130;2023-07-08T13:31:16;33.81;23.92
70534;SHT31;58088;51.186;17.130;2023-07-08T13:33:52;33.81;23.67
70534;SHT31;58088;51.186;17.130;2023-07-08T13:36:24;33.79;22.94
70534;SHT31;58088;51.186;17.130;2023-07-08T13:39:00;33.74;23.07
70534;SHT31;58088;51.186;17.130;2023-07-08T13:41:32;33.75;23.41
70534;SHT31;58088;51.186;17.130;2023-07-08T13:44:03;33.74;23.49
70534;SHT31;58088;51.186;17.130;2023-07-08T13:46:34;33.78;23.27
70534;SHT31;58088;51.186;17.130;2023-07-08T13:49:19;33.74;22.93
70534;SHT31;58088;51.186;17.130;2023-07-08T13:51:50;33.74;22.76
70534;SHT31;58088;51.186;17.130;2023-07-08T13:54:22;33.69;22.65
70534;SHT31;58088;51.186;17.130;2023-07-08T13:56:59;33.70;23.64
70534;SHT31;58088;51.186;17.130;2023-07-08T13:59:28;33.69;23.71
70534;SHT31;58088;51.186;17.130;2023-07-08T14:01:55;33.69;24.05
70534;SHT31;58088;51.186;17.130;2023-07-08T14:04:27;33.66;23.75
70534;SHT31;58088;51.186;17.130;2023-07-08T14:07:00;33.64;23.30
70534;SHT31;58088;51.186;17.130;2023-07-08T14:09:26;33.53;22.61
70534;SHT31;58088;51.186;17.130;2023-07-08T14:11:52;33.49;22.85
70534;SHT31;58088;51.186;17.130;2023-07-08T14:14:20;33.53;23.06
70534;SHT31;58088;51.186;17.130;2023-07-08T14:16:50;33.58;23.39
70534;SHT31;58088;51.186;17.130;2023-07-08T14:21:57;33.66;23.59
70534;SHT31;58088;51.186;17.130;2023-07-08T14:24:47;33.65;23.64
70534;SHT31;58088;51.186;17.130;2023-07-08T14:27:14;33.62;23.80
70534;SHT31;58088;51.186;17.130;2023-07-08T14:29:42;33.61;23.93
70534;SHT31;58088;51.186;17.130;2023-07-08T14:34:52;33.51;23.41
70534;SHT31;58088;51.186;17.130;2023-07-08T14:37:22;33.43;23.01
70534;SHT31;58088;51.186;17.130;2023-07-08T14:39:49;33.33;23.06
70534;SHT31;58088;51.186;17.130;2023-07-08T14:42:16;33.28;23.05
70534;SHT31;58088;51.186;17.130;2023-07-08T14:44:46;33.25;23.47
70534;SHT31;58088;51.186;17.130;2023-07-08T14:47:16;33.25;23.97
70534;SHT31;58088;51.186;17.130;2023-07-08T14:49:45;33.26;25.00
70534;SHT31;58088;51.186;17.130;2023-07-08T14:52:12;33.26;24.46
70534;SHT31;58088;51.186;17.130;2023-07-08T14:54:38;33.21;24.17
70534;SHT31;58088;51.186;17.130;2023-07-08T14:57:04;33.17;24.46
70534;SHT31;58088;51.186;17.130;2023-07-08T14:59:35;33.15;24.22
70534;SHT31;58088;51.186;17.130;2023-07-08T15:02:02;33.17;24.23
70534;SHT31;58088;51.186;17.130;2023-07-08T15:04:46;33.13;23.49
70534;SHT31;58088;51.186;17.130;2023-07-08T15:07:13;33.01;23.48
70534;SHT31;58088;51.186;17.130;2023-07-08T15:09:39;32.87;23.31
70534;SHT31;58088;51.186;17.130;2023-07-08T15:12:07;32.77;23.52
70534;SHT31;58088;51.186;17.130;2023-07-08T15:14:37;32.74;23.99
70534;SHT31;58088;51.186;17.130;2023-07-08T15:17:09;32.76;24.31
70534;SHT31;58088;51.186;17.130;2023-07-08T15:19:43;32.78;24.41
70534;SHT31;58088;51.186;17.130;2023-07-08T15:22:10;32.73;23.93
70534;SHT31;58088;51.186;17.130;2023-07-08T15:24:36;32.65;23.72
70534;SHT31;58088;51.186;17.130;2023-07-08T15:27:03;32.63;24.80
70534;SHT31;58088;51.186;17.130;2023-07-08T15:29:30;32.58;25.49
70534;SHT31;58088;51.186;17.130;2023-07-08T15:31:58;32.47;25.10
70534;SHT31;58088;51.186;17.130;2023-07-08T15:34:24;32.38;24.73
70534;SHT31;58088;51.186;17.130;2023-07-08T15:36:50;32.34;25.03
70534;SHT31;58088;51.186;17.130;2023-07-08T15:39:17;32.32;25.34
70534;SHT31;58088;51.186;17.130;2023-07-08T15:41:43;32.25;24.99
70534;SHT31;58088;51.186;17.130;2023-07-08T15:44:10;32.26;25.12
70534;SHT31;58088;51.186;17.130;2023-07-08T15:46:45;32.25;25.15
70534;SHT31;58088;51.186;17.130;2023-07-08T15:49:18;32.29;25.65
70534;SHT31;58088;51.186;17.130;2023-07-08T15:51:56;32.23;25.31
70534;SHT31;58088;51.186;17.130;2023-07-08T15:54:22;32.12;25.08
70534;SHT31;58088;51.186;17.130;2023-07-08T15:56:48;32.08;24.77
70534;SHT31;58088;51.186;17.130;2023-07-08T15:59:24;32.10;25.08
70534;SHT31;58088;51.186;17.130;2023-07-08T16:01:55;32.09;25.20
70534;SHT31;58088;51.186;17.130;2023-07-08T16:04:31;32.04;24.95
70534;SHT31;58088;51.186;17.130;2023-07-08T16:07:00;32.05;25.63
70534;SHT31;58088;51.186;17.130;2023-07-08T16:09:26;32.03;25.63
70534;SHT31;58088;51.186;17.130;2023-07-08T16:11:53;32.02;25.56
70534;SHT31;58088;51.186;17.130;2023-07-08T16:14:19;32.03;25.41
70534;SHT31;58088;51.186;17.130;2023-07-08T16:16:45;32.04;25.72
70534;SHT31;58088;51.186;17.130;2023-07-08T16:19:12;32.04;25.79
70534;SHT31;58088;51.186;17.130;2023-07-08T16:21:40;32.01;25.65
70534;SHT31;58088;51.186;17.130;2023-07-08T16:24:07;31.98;26.33
70534;SHT31;58088;51.186;17.130;2023-07-08T16:26:33;31.89;25.40
70534;SHT31;58088;51.186;17.130;2023-07-08T16:29:00;31.84;25.18
70534;SHT31;58088;51.186;17.130;2023-07-08T16:31:27;31.84;26.06
70534;SHT31;58088;51.186;17.130;2023-07-08T16:33:54;31.86;26.00
70534;SHT31;58088;51.186;17.130;2023-07-08T16:36:25;31.85;25.47
70534;SHT31;58088;51.186;17.130;2023-07-08T16:38:53;31.84;25.83
70534;SHT31;58088;51.186;17.130;2023-07-08T16:41:21;31.82;27.08
70534;SHT31;58088;51.186;17.130;2023-07-08T16:43:51;31.77;29.20